Flight Track Log - Related Links

Times and Time Zones

All times are in EDT time to prevent confusion due to time zone crossing. See the LOF3416 flight status page for this flight to view local times or setup timezone preferences in your user account.


Time Position Orientation Groundspeed Altitude Reporting Facility
EDT Latitude Longitude Course Direction KTS MPH feet Rate Location/Type
Sat 06:51:21 PM 43.0933 -77.6975 281° West 169 194 1,200  Level Cleveland Center
Sat 06:52:03 PM 43.0647 -77.7244 215° Southwest 180 207 2,600 1,765 Climbing Cleveland Center
Sat 06:53:20 PM 43.0772 -77.8092 281° West 192 221 4,700 1,883 Climbing Cleveland Center
Sat 06:54:00 PM 43.1559 -78.0918 278° West  Level FlightAware Approximate
Sat 06:54:20 PM 43.0939 -77.8992 284° West 203 234 6,900  Level Cleveland Center
Sat 06:55:00 PM 43.1665 -78.1987 278° West  Level FlightAware Approximate
Sat 06:55:20 PM 43.1128 -77.9922 286° West 236 272 9,300  Level Cleveland Center
Sat 06:56:00 PM 43.1817 -78.3046 281° West  Level FlightAware Approximate
Sat 06:56:20 PM 43.1336 -78.0853 287° West 257 296 11,100  Level Cleveland Center
Sat 06:57:20 PM 43.1525 -78.1900 284° West 269 310 12,400 1,450 Climbing Cleveland Center
Sat 06:58:20 PM 43.1733 -78.3003 285° West 295 339 14,000 1,450 Climbing Cleveland Center
Sat 06:59:20 PM 43.1942 -78.4019 286° West 302 348 15,300 1,300 Climbing Cleveland Center
Sat 07:00:20 PM 43.2067 -78.5211 278° West 308 354 16,600 1,200 Climbing Cleveland Center
Sat 07:01:20 PM 43.2025 -78.6408 267° West 308 354 17,700 1,400 Climbing Cleveland Center
Sat 07:02:20 PM 43.1942 -78.7608 265° West 313 360 19,400 1,950 Climbing Cleveland Center
Sat 07:03:20 PM 43.1875 -78.8750 265° West 313 360 21,600 1,857 Climbing Cleveland Center
Sat 07:04:26 PM 43.1667 -79.0000 257° West 280 322 23,300 1,429 Climbing Toronto Center
Sat 07:05:26 PM 43.1667 -79.0833 270° West 280 322 24,600 1,350 Climbing Toronto Center
Sat 07:06:26 PM 43.1667 -79.2000 270° West 280 322 26,000 1,400 Climbing Toronto Center
Sat 07:07:26 PM 43.1500 -79.2833 255° West 270 311 27,400 1,350 Climbing Toronto Center
Sat 07:08:26 PM 43.1500 -79.4000 270° West 270 311 28,700 1,500 Climbing Toronto Center
Sat 07:09:26 PM 43.1333 -79.5000 257° West 270 311 30,400 1,600 Climbing Toronto Center
Sat 07:10:26 PM 43.1333 -79.5833 270° West 250 288 31,900 1,300 Climbing Toronto Center
Sat 07:11:26 PM 43.1333 -79.7000 270° West 250 288 33,000 1,150 Climbing Toronto Center
Sat 07:12:26 PM 43.1167 -79.8000 257° West 240 276 34,200 1,100 Climbing Toronto Center
Sat 07:13:26 PM 43.1167 -79.8833 270° West 230 265 35,200 900 Climbing Toronto Center
Sat 07:14:26 PM 43.1167 -79.9500 270° West 230 265 36,000 400 Climbing Toronto Center
Sat 07:15:26 PM 43.1000 -80.0500 257° West 240 276 36,000  Level Toronto Center
Sat 07:16:26 PM 43.1000 -80.1500 270° West 260 299 36,000  Level Toronto Center
Sat 07:17:26 PM 43.1000 -80.2500 270° West 280 322 36,000  Level Toronto Center
Sat 07:18:26 PM 43.0833 -80.3833 260° West 300 345 36,000  Level Toronto Center
Sat 07:19:26 PM 43.0833 -80.5000 270° West 320 368 36,000  Level Toronto Center
Sat 07:20:26 PM 43.0667 -80.6333 260° West 340 391 36,000  Level Toronto Center
Sat 07:21:26 PM 43.0667 -80.7500 270° West 340 391 36,000  Level Toronto Center
Sat 07:22:26 PM 43.0333 -80.8833 251° West 340 391 36,000  Level Toronto Center
Sat 07:23:26 PM 43.0333 -81.0167 270° West 350 403 36,000  Level Toronto Center
Sat 07:24:26 PM 43.0167 -81.1333 259° West 350 403 36,000  Level Toronto Center
Sat 07:25:26 PM 43.0167 -81.2667 270° West 350 403 36,000  Level Toronto Center
Sat 07:26:26 PM 43.0167 -81.4167 270° West 350 403 36,000  Level Toronto Center
Sat 07:27:26 PM 43.0167 -81.5500 270° West 350 403 36,000  Level Toronto Center
Sat 07:28:26 PM 43.0167 -81.6833 270° West 340 391 36,000  Level Toronto Center
Sat 07:29:26 PM 43.0167 -81.8000 270° West 340 391 36,000  Level Toronto Center
Sat 07:30:26 PM 43.0000 -81.9333 260° West 340 391 36,000  Level Toronto Center
Sat 07:31:26 PM 43.0000 -82.0500 270° West 340 391 36,000  Level Toronto Center
Sat 07:32:26 PM 43.0000 -82.1833 270° West 340 391 36,000  Level Toronto Center
Sat 07:33:26 PM 43.0000 -82.3167 270° West 340 391 36,000  Level Toronto Center
Sat 07:34:26 PM 43.0000 -82.4667 270° West 340 391 36,000  Level Toronto Center
Sat 07:35:26 PM 43.0000 -82.5667 270° West 340 391 36,000  Level Toronto Center
Sat 07:36:44 PM 43.0006 -82.7519 270° West 346 398 36,000  Level Cleveland Center
Sat 07:37:44 PM 42.9958 -82.8797 267° West 346 398 36,000  Level Cleveland Center
Sat 07:38:44 PM 42.9911 -83.0072 267° West 346 398 36,000  Level Cleveland Center
Sat 07:39:44 PM 42.9883 -83.1406 268° West 346 398 36,000 -450 Level Cleveland Center
Sat 07:40:44 PM 42.9833 -83.2653 267° West 346 398 35,100 -950 Descending Cleveland Center
Sat 07:41:44 PM 42.9783 -83.3956 267° West 346 398 34,100 -1,000 Descending Cleveland Center
Sat 07:42:44 PM 42.9747 -83.5317 268° West 346 398 33,100 -1,000 Descending Cleveland Center
Sat 07:43:44 PM 42.9692 -83.6703 267° West 358 412 32,100 -550 Descending Cleveland Center
Sat 07:44:44 PM 42.9611 -83.8061 265° West 364 419 32,000 -50 Descending Cleveland Center
Sat 07:45:44 PM 42.9469 -83.9389 262° West 364 419 32,000  Level Cleveland Center
Sat 07:46:44 PM 42.9347 -84.0714 263° West 364 419 32,000  Level Cleveland Center
Sat 07:47:33 PM 42.9247 -84.1781 263° West 353 406 32,000 -324 Level Chicago Center
Sat 07:48:35 PM 42.9119 -84.3086 262° West 350 403 31,400 -871 Descending Chicago Center
Sat 07:49:37 PM 42.8981 -84.4450 262° West 361 415 30,200 -683 Descending Chicago Center
Sat 07:50:38 PM 42.8836 -84.5831 262° West 366 421 30,000 -98 Descending Chicago Center
Sat 07:51:40 PM 42.8708 -84.7194 263° West 365 420 30,000  Level Chicago Center
Sat 07:52:42 PM 42.8561 -84.8567 262° West 366 421 30,000  Level Chicago Center
Sat 07:53:43 PM 42.8411 -84.9936 262° West 367 422 30,000 -49 Level Chicago Center
Sat 07:54:45 PM 42.8269 -85.1303 262° West 367 422 29,900 -629 Descending Chicago Center
Sat 07:55:47 PM 42.8086 -85.2961 261° West 369 425 28,700 -1,065 Descending Chicago Center
Sat 07:56:49 PM 42.7925 -85.4419 261° West 382 440 27,700 -976 Descending Chicago Center
Sat 07:57:50 PM 42.7694 -85.5914 258° West 401 461 26,700 -1,512 Descending Chicago Center
Sat 07:58:52 PM 42.7444 -85.7333 257° West 388 447 24,600 -2,177 Descending Chicago Center
Sat 07:59:54 PM 42.7206 -85.8653 256° West 362 417 22,200 -1,905 Descending Chicago Center
Sat 08:00:58 PM 42.6947 -86.0036 256° West 371 427 20,600 -1,048 Descending Chicago Center
Sat 08:02:00 PM 42.6706 -86.1394 256° West 370 426 20,000 -387 Descending Chicago Center
Sat 08:03:02 PM 42.6422 -86.2947 256° West 355 409 19,800 -919 Descending Chicago Center
Sat 08:04:04 PM 42.6158 -86.4275 255° West 360 414 18,100 -1,742 Descending Chicago Center
Sat 08:05:06 PM 42.5917 -86.5586 256° West 357 411 16,200 -1,805 Descending Chicago Center
Sat 08:06:07 PM 42.5656 -86.6950 255° West 369 425 14,400 -1,659 Descending Chicago Center
Sat 08:07:09 PM 42.5347 -86.8303 253° West 375 432 12,800 -1,306 Descending Chicago Center
Sat 08:08:11 PM 42.5011 -86.9494 249° West 347 399 11,700 -919 Descending Chicago Center
Sat 08:09:13 PM 42.4711 -87.0514 248° West 299 344 10,900 -774 Descending Chicago Center
Sat 08:10:15 PM 42.4372 -87.1731 249° West 289 333 10,100 -439 Descending Chicago Center
Sat 08:11:16 PM 42.4106 -87.2731 250° West 283 326 10,000 -49 Descending Chicago Center
Sat 08:12:18 PM 42.3833 -87.3717 250° West 283 326 10,000  Level Chicago Center
Sat 08:13:20 PM 42.3556 -87.4742 250° West 281 323 10,000  Level Chicago Center
Sat 08:14:22 PM 42.3133 -87.5631 237° Southwest 293 337 10,000  Level Chicago Center
Sat 08:15:24 PM 42.2486 -87.6317 218° Southwest 299 344 10,000  Level Chicago Center
Sat 08:16:25 PM 42.1842 -87.6997 218° Southwest 298 343 10,000 -829 Level Chicago Center
Sat 08:17:27 PM 42.1089 -87.7775 217° Southwest 288 331 8,300 -1,452 Descending Chicago Center
Sat 08:18:29 PM 42.0914 -87.8706 256° West 267 307 7,000 -629 Descending Chicago Center
Sat 08:19:31 PM 42.0869 -87.9706 267° West 270 311 7,000 -244 Level Chicago Center
Sat 08:20:32 PM 42.0769 -88.0694 262° West 270 311 6,500 -1,024 Descending Chicago Center
Sat 08:21:34 PM 42.0672 -88.1664 262° West 267 307 4,900 -1,161 Descending Chicago Center
Sat 08:22:36 PM 42.0547 -88.2503 259° West 251 289 4,100 -387 Descending Chicago Center
Sat 08:23:38 PM 41.9931 -88.2450 176° South 200 230 4,100  Level Chicago Center
Sat 08:24:39 PM 41.9700 -88.1772 115° Southeast 204 235 4,100  Level Chicago Center

Login

Don't have an account? Register now (free) for customized features, flight alerts, and more!